createdAt,value
2018-04-17T12:37:45.980Z,10.20
2018-04-17T12:40:14.159Z,10.20
2018-04-17T12:42:43.052Z,11.40
2018-04-17T12:45:11.968Z,10.70
2018-04-17T12:47:40.084Z,10.60
2018-04-17T12:50:08.509Z,9.40
2018-04-17T12:52:36.640Z,8.20
2018-04-17T12:55:04.767Z,6.40
2018-04-17T12:57:32.920Z,5.60
2018-04-17T13:00:01.801Z,5.00
2018-04-17T13:02:30.704Z,3.50
2018-04-17T13:04:58.894Z,3.40
2018-04-17T13:07:27.103Z,4.00
2018-04-17T13:09:55.284Z,2.30
2018-04-17T13:12:23.438Z,1.20
2018-04-17T13:14:51.577Z,1.60
2018-04-17T13:17:19.729Z,1.00
2018-04-17T13:19:48.618Z,1.00
2018-04-17T13:22:17.905Z,1.00
2018-04-17T13:24:46.848Z,1.00
2018-04-17T13:27:14.990Z,1.00
2018-04-17T13:29:43.950Z,1.00
2018-04-17T13:32:12.167Z,1.00
2018-04-17T13:34:40.445Z,1.00
2018-04-17T13:37:08.636Z,1.00
2018-04-17T13:39:36.775Z,1.00
2018-04-17T13:42:05.097Z,1.00
2018-04-17T13:44:33.379Z,1.00
2018-04-17T13:47:02.201Z,1.00
2018-04-17T13:49:31.146Z,1.00
2018-04-17T13:51:59.317Z,1.00
2018-04-17T13:54:27.489Z,1.00
2018-04-17T13:56:55.658Z,1.00
2018-04-17T13:59:23.849Z,1.00
2018-04-17T14:01:52.009Z,1.00
2018-04-17T14:04:20.145Z,1.00
2018-04-17T14:06:50.007Z,1.00
2018-04-17T14:09:18.128Z,1.00
2018-04-17T14:11:47.635Z,1.00
2018-04-17T14:14:15.753Z,1.00
2018-04-17T14:16:43.912Z,1.00
2018-04-17T14:19:12.087Z,1.00
2018-04-17T14:21:40.204Z,1.00
2018-04-17T14:24:09.157Z,1.00
2018-04-17T14:26:37.337Z,1.00
2018-04-17T14:29:05.587Z,1.00
2018-04-17T14:31:33.748Z,1.50
2018-04-17T14:34:01.895Z,2.80
2018-04-17T14:36:30.781Z,3.00
2018-04-17T14:38:59.675Z,4.70
2018-04-17T14:41:28.634Z,6.10
2018-04-17T14:43:56.825Z,6.10
2018-04-17T14:46:24.950Z,6.90
2018-04-17T14:48:53.087Z,8.60
2018-04-17T14:51:21.996Z,5.30
2018-04-17T14:53:50.158Z,5.20
2018-04-17T14:56:18.291Z,3.10
2018-04-17T14:58:46.409Z,1.60
2018-04-17T15:01:14.576Z,1.00
2018-04-17T15:03:42.700Z,1.00
2018-04-17T15:06:10.813Z,1.00
2018-04-17T15:08:39.773Z,1.00
2018-04-17T15:11:07.933Z,1.00
2018-04-17T15:13:36.074Z,1.00
2018-04-17T15:16:04.217Z,1.00
2018-04-17T15:18:33.112Z,1.00
2018-04-17T15:21:01.305Z,1.00
2018-04-17T15:23:29.471Z,1.00
2018-04-17T15:25:57.675Z,1.00
2018-04-17T15:28:25.832Z,1.00
2018-04-17T15:30:54.002Z,1.00
2018-04-17T15:33:22.197Z,1.00
2018-04-17T15:35:50.448Z,1.00
2018-04-17T15:38:18.588Z,1.00
2018-04-17T15:40:47.484Z,1.00
2018-04-17T15:43:16.369Z,1.00
2018-04-17T15:45:44.534Z,1.00
2018-04-17T15:48:13.417Z,1.00
2018-04-17T15:50:41.761Z,1.00
2018-04-17T15:53:09.931Z,1.00
2018-04-17T15:55:38.084Z,1.00
2018-04-17T15:58:06.264Z,1.00
2018-04-17T16:00:34.405Z,1.00
2018-04-17T16:03:02.529Z,1.00
2018-04-17T16:05:30.721Z,1.00
2018-04-17T16:07:58.889Z,1.00
2018-04-17T16:10:27.004Z,1.00
2018-04-17T16:12:55.163Z,1.00
2018-04-17T16:15:24.066Z,1.00
2018-04-17T16:17:52.183Z,1.00
2018-04-17T16:20:20.341Z,1.00
2018-04-17T16:22:48.501Z,1.00
2018-04-17T16:25:16.664Z,1.00
2018-04-17T16:27:44.811Z,1.00
2018-04-17T16:30:14.163Z,1.00
2018-04-17T16:32:42.300Z,1.00
2018-04-17T16:35:10.454Z,1.00
2018-04-17T16:37:39.369Z,1.00
2018-04-17T16:40:07.500Z,1.00
2018-04-17T16:42:35.644Z,1.00
2018-04-17T16:45:03.798Z,1.00
2018-04-17T16:47:31.933Z,1.90
2018-04-17T16:50:00.822Z,3.70
2018-04-17T16:52:29.769Z,5.00
2018-04-17T16:54:57.926Z,4.90
2018-04-17T16:57:26.113Z,6.20
2018-04-17T16:59:54.293Z,7.50
2018-04-17T17:02:22.437Z,9.00
2018-04-17T17:04:50.622Z,10.60
2018-04-17T17:07:18.755Z,12.00
2018-04-17T17:09:47.690Z,14.40
2018-04-17T17:12:15.820Z,14.30
2018-04-17T17:14:44.732Z,15.30
2018-04-17T17:17:12.898Z,15.30
2018-04-17T17:19:41.091Z,15.90
2018-04-17T17:22:09.219Z,16.00
2018-04-17T17:24:38.129Z,17.40
2018-04-17T17:27:06.296Z,17.40
2018-04-17T17:29:34.511Z,18.20
2018-04-17T17:32:02.638Z,19.60
2018-04-17T17:34:31.565Z,18.80
2018-04-17T17:36:59.691Z,18.80
2018-04-17T17:39:28.582Z,19.90
2018-04-17T17:41:57.488Z,20.10
2018-04-17T17:44:25.703Z,20.10
2018-04-17T17:46:53.873Z,20.30
2018-04-17T17:49:22.256Z,20.30
2018-04-17T17:51:50.425Z,21.00
2018-04-17T17:54:18.665Z,21.20
2018-04-17T17:56:46.841Z,21.60
2018-04-17T17:59:14.961Z,22.00
2018-04-17T18:01:43.081Z,22.80
2018-04-17T18:04:11.242Z,23.80
2018-04-17T18:06:40.163Z,23.30
2018-04-17T18:09:08.289Z,23.30
2018-04-17T18:11:37.195Z,24.90
2018-04-17T18:14:06.118Z,24.80
2018-04-17T18:16:34.237Z,24.90
2018-04-17T18:19:02.385Z,25.30
2018-04-17T18:21:30.532Z,25.40
2018-04-17T18:23:58.677Z,26.00
2018-04-17T18:26:26.818Z,26.20
2018-04-17T18:28:54.971Z,26.50
2018-04-17T18:31:23.122Z,26.60
2018-04-17T18:33:51.321Z,26.80
2018-04-17T18:36:19.544Z,27.10
2018-04-17T18:38:47.724Z,27.20
2018-04-17T18:41:15.889Z,27.70
2018-04-17T18:43:44.050Z,27.80
2018-04-17T18:46:12.982Z,28.50
2018-04-17T18:48:41.124Z,28.50
2018-04-17T18:51:09.282Z,28.90
2018-04-17T18:53:38.177Z,29.70
2018-04-17T18:56:07.091Z,30.50
2018-04-17T18:58:35.257Z,30.60
2018-04-17T19:01:03.405Z,30.50
2018-04-17T19:03:33.273Z,31.10
2018-04-17T19:06:01.409Z,31.00
2018-04-17T19:08:29.525Z,31.30
2018-04-17T19:10:57.700Z,31.70
2018-04-17T19:13:25.840Z,32.00
2018-04-17T19:15:53.986Z,32.70
2018-04-17T19:18:22.140Z,32.60
2018-04-17T19:20:50.281Z,33.30
2018-04-17T19:23:18.405Z,33.90
2018-04-17T19:25:47.312Z,34.60
2018-04-17T19:28:15.470Z,34.60
2018-04-17T19:30:43.622Z,34.90
2018-04-17T19:33:12.534Z,35.80
2018-04-17T19:35:41.454Z,35.90
2018-04-17T19:38:09.615Z,35.90
2018-04-17T19:40:37.838Z,35.70
2018-04-17T19:43:05.977Z,36.00
2018-04-17T19:45:44.786Z,36.80
2018-04-17T19:48:12.905Z,37.40
2018-04-17T19:50:41.098Z,38.20
2018-04-17T19:53:10.042Z,38.50
2018-04-17T19:55:38.422Z,38.50
2018-04-17T19:58:07.809Z,38.70
2018-04-17T20:00:35.995Z,38.70
2018-04-17T20:03:04.167Z,39.10
2018-04-17T20:05:33.564Z,39.40
2018-04-17T20:08:02.011Z,39.30
2018-04-17T20:10:30.162Z,39.50
2018-04-17T20:12:59.097Z,40.20
2018-04-17T20:15:27.287Z,40.20
2018-04-17T20:18:06.156Z,40.40
2018-04-17T20:20:35.153Z,40.60
2018-04-17T20:23:05.244Z,41.00
2018-04-17T20:25:33.410Z,40.90
2018-04-17T20:28:01.537Z,43.10
2018-04-17T20:30:29.666Z,43.70
2018-04-17T20:32:57.881Z,44.30
2018-04-17T20:35:26.070Z,44.80
2018-04-17T20:37:54.221Z,48.10
2018-04-17T20:40:23.794Z,47.90
2018-04-17T20:42:52.749Z,47.80
2018-04-17T20:45:20.913Z,47.70
2018-04-17T20:47:49.093Z,48.00
2018-04-17T20:50:17.250Z,48.50
2018-04-17T20:52:45.426Z,48.60
2018-04-17T20:55:13.592Z,48.30
2018-04-17T20:57:41.996Z,47.70
2018-04-17T21:00:10.176Z,47.60
2018-04-17T21:02:38.338Z,47.60
2018-04-17T21:05:06.469Z,47.60
2018-04-17T21:07:34.684Z,47.70
2018-04-17T21:10:03.370Z,48.00
2018-04-17T21:12:31.526Z,48.80
2018-04-17T21:14:59.821Z,48.80
2018-04-17T21:17:27.976Z,49.40
2018-04-17T21:19:56.097Z,50.50
2018-04-17T21:22:25.038Z,51.70
2018-04-17T21:24:53.169Z,51.00
2018-04-17T21:27:22.086Z,54.00
2018-04-17T21:29:50.260Z,54.00
2018-04-17T21:32:18.421Z,55.30
2018-04-17T21:34:46.566Z,55.40
2018-04-17T21:37:14.688Z,57.60
2018-04-17T21:39:42.854Z,57.90
2018-04-17T21:42:11.014Z,57.90
2018-04-17T21:44:39.185Z,57.40
2018-04-17T21:47:07.346Z,57.30
2018-04-17T21:49:36.394Z,57.70
2018-04-17T21:52:04.532Z,57.70
2018-04-17T21:54:32.652Z,57.70
2018-04-17T21:57:00.795Z,57.70
2018-04-17T21:59:28.928Z,58.50
2018-04-17T22:01:57.824Z,60.80
2018-04-17T22:04:26.025Z,60.70
2018-04-17T22:06:54.210Z,60.50
2018-04-17T22:09:22.367Z,60.70
2018-04-17T22:11:50.573Z,60.40
2018-04-17T22:14:18.709Z,60.40
2018-04-17T22:16:46.905Z,60.80
2018-04-17T22:19:15.192Z,60.00
2018-04-17T22:21:43.390Z,60.00
2018-04-17T22:24:12.309Z,59.80
2018-04-17T22:26:40.466Z,59.80
2018-04-17T22:29:09.371Z,59.50
2018-04-17T22:31:37.499Z,59.50
2018-04-17T22:34:05.672Z,59.40
2018-04-17T22:36:33.825Z,59.30
2018-04-17T22:39:01.989Z,59.40
2018-04-17T22:41:30.126Z,59.50
2018-04-17T22:43:58.277Z,59.70
2018-04-17T22:46:27.214Z,59.70
2018-04-17T22:48:55.976Z,59.70
2018-04-17T22:51:24.096Z,59.60
2018-04-17T22:53:52.224Z,59.40
2018-04-17T22:56:20.375Z,59.00
2018-04-17T22:58:49.294Z,59.50
2018-04-17T23:01:17.477Z,59.40
2018-04-17T23:03:45.632Z,60.70
2018-04-17T23:06:13.791Z,61.30
2018-04-17T23:08:42.711Z,63.20
2018-04-17T23:11:10.886Z,63.20
2018-04-17T23:13:39.066Z,63.40
2018-04-17T23:16:07.194Z,64.50
2018-04-17T23:18:36.119Z,64.20
2018-04-17T23:21:04.241Z,64.20
2018-04-17T23:23:32.394Z,64.00
2018-04-17T23:26:00.908Z,63.80
2018-04-17T23:28:29.801Z,64.40
2018-04-17T23:30:58.718Z,65.00
2018-04-17T23:33:26.861Z,65.00
2018-04-17T23:35:55.802Z,68.00
2018-04-17T23:38:23.961Z,68.00
2018-04-17T23:40:52.076Z,68.40
2018-04-17T23:43:20.208Z,68.50
2018-04-17T23:45:48.387Z,68.00
2018-04-17T23:48:16.562Z,67.70
2018-04-17T23:50:45.163Z,69.00
2018-04-17T23:53:13.334Z,68.70
2018-04-17T23:55:41.504Z,68.60
2018-04-17T23:58:09.870Z,68.80
